Time;durP1;ratioP1;P1;durP2;ratioP2;P2;SDS_P1;SDS_P2;PMS_P1;PMS_P2;Temp;Humidity;BMP_temperature;BMP_pressure;BME280_temperature;BME280_humidity;BME280_pressure;Samples;Min_cycle;Max_cycle;Signal;HPM_P1;HPM_P2
2021/05/14 00:00:10;;;;;;;2.53;1.50;;;;;;;;;;4963101;28;20693;-82
2021/05/14 00:03:16;;;;;;;1.93;1.67;;;;;;;;;;4966113;28;20183;-82
2021/05/14 00:06:20;;;;;;;1.90;1.63;;;;;;;;;;4962507;28;20186;-82
2021/05/14 00:09:24;;;;;;;1.80;1.50;;;;;;;;;;4972544;28;20704;-82
2021/05/14 00:12:28;;;;;;;2.07;1.60;;;;;;;;;;4944011;28;20675;-82
2021/05/14 00:15:33;;;;;;;2.43;1.60;;;;;;;;;;4955141;28;20194;-82
2021/05/14 00:18:36;;;;;;;1.70;1.60;;;;;;;;;;4954526;28;20567;-82
2021/05/14 00:21:41;;;;;;;2.60;1.70;;;;;;;;;;4963684;28;20202;-82
2021/05/14 00:24:46;;;;;;;4.00;1.60;;;;;;;;;;4980721;28;20201;-82
2021/05/14 00:27:50;;;;;;;1.70;1.60;;;;;;;;;;4973461;28;20202;-82
2021/05/14 00:30:54;;;;;;;1.67;1.57;;;;;;;;;;4943605;28;20186;-82
2021/05/14 00:33:59;;;;;;;2.50;1.57;;;;;;;;;;4946609;28;20186;-82
2021/05/14 00:37:03;;;;;;;1.90;1.70;;;;;;;;;;4963426;28;20191;-82
2021/05/14 00:40:08;;;;;;;2.43;1.50;;;;;;;;;;4954474;28;20563;-82
2021/05/14 00:43:12;;;;;;;3.30;1.60;;;;;;;;;;4943847;28;20179;-82
2021/05/14 00:46:16;;;;;;;1.70;1.40;;;;;;;;;;4943498;28;20198;-82
2021/05/14 00:49:20;;;;;;;2.03;1.60;;;;;;;;;;4965992;28;20226;-82
2021/05/14 00:52:25;;;;;;;2.87;1.73;;;;;;;;;;4958788;28;20214;-82
2021/05/14 00:55:29;;;;;;;1.50;1.40;;;;;;;;;;4968593;28;20190;-82
2021/05/14 00:58:33;;;;;;;1.60;1.50;;;;;;;;;;4960894;28;20217;-82
2021/05/14 01:01:37;;;;;;;3.13;1.80;;;;;;;;;;4974893;28;20201;-82
2021/05/14 01:04:43;;;;;;;3.10;1.80;;;;;;;;;;4966313;28;20554;-82
2021/05/14 01:07:50;;;;;;;1.57;1.47;;;;;;;;;;4956090;28;20205;-82
2021/05/14 01:10:54;;;;;;;2.70;1.50;;;;;;;;;;4970763;28;20558;-82
2021/05/14 01:13:58;;;;;;;2.77;1.63;;;;;;;;;;4981412;28;20222;-82
2021/05/14 01:17:03;;;;;;;2.37;1.80;;;;;;;;;;4954399;28;20630;-81
2021/05/14 01:20:07;;;;;;;3.10;1.73;;;;;;;;;;4970565;28;20217;-82
2021/05/14 01:23:13;;;;;;;2.20;1.60;;;;;;;;;;4983563;28;20194;-82
2021/05/14 01:26:19;;;;;;;2.07;1.70;;;;;;;;;;4967188;28;20202;-82
2021/05/14 01:29:24;;;;;;;4.80;2.00;;;;;;;;;;4983097;28;20233;-82
2021/05/14 01:32:28;;;;;;;1.57;1.47;;;;;;;;;;4977680;28;20230;-82
2021/05/14 01:35:32;;;;;;;4.90;1.93;;;;;;;;;;4967720;28;20182;-82
2021/05/14 01:38:37;;;;;;;2.20;1.90;;;;;;;;;;4942485;28;20214;-82
2021/05/14 01:41:41;;;;;;;2.47;2.00;;;;;;;;;;4954257;28;20542;-82
2021/05/14 01:44:45;;;;;;;2.00;1.80;;;;;;;;;;4949868;28;20194;-82
2021/05/14 01:47:49;;;;;;;2.10;1.90;;;;;;;;;;4955034;28;20531;-82
2021/05/14 01:50:53;;;;;;;2.97;2.17;;;;;;;;;;4953971;28;20190;-81
2021/05/14 01:53:58;;;;;;;2.20;2.00;;;;;;;;;;4962355;28;20210;-81
2021/05/14 01:57:02;;;;;;;2.10;1.90;;;;;;;;;;4953350;28;20175;-82
2021/05/14 02:00:08;;;;;;;2.20;2.00;;;;;;;;;;4951058;28;20561;-82
2021/05/14 02:03:14;;;;;;;2.20;2.00;;;;;;;;;;4946188;28;20194;-82
2021/05/14 02:06:19;;;;;;;3.40;1.80;;;;;;;;;;4945743;28;20638;-82
2021/05/14 02:09:22;;;;;;;3.33;2.40;;;;;;;;;;4982487;28;20221;-82
2021/05/14 02:12:27;;;;;;;2.90;2.13;;;;;;;;;;4952106;28;20222;-82
2021/05/14 02:15:32;;;;;;;3.80;2.00;;;;;;;;;;4963457;28;20202;-82
2021/05/14 02:18:38;;;;;;;3.93;2.30;;;;;;;;;;4941905;28;20230;-82
2021/05/14 02:21:42;;;;;;;4.20;2.30;;;;;;;;;;4952383;28;20199;-82
2021/05/14 02:24:49;;;;;;;3.43;2.10;;;;;;;;;;4958461;28;20356;-82
2021/05/14 02:27:53;;;;;;;3.30;2.50;;;;;;;;;;4953826;28;20190;-82
2021/05/14 02:30:57;;;;;;;2.17;1.90;;;;;;;;;;4979642;28;20194;-82
2021/05/14 02:34:01;;;;;;;3.40;2.47;;;;;;;;;;4952284;28;20218;-82
2021/05/14 02:37:06;;;;;;;2.50;2.30;;;;;;;;;;4957017;28;20206;-82
2021/05/14 02:40:12;;;;;;;2.27;2.07;;;;;;;;;;4974932;28;20214;-82
2021/05/14 02:43:16;;;;;;;3.07;2.33;;;;;;;;;;4975802;28;20193;-82
2021/05/14 02:46:20;;;;;;;3.70;2.27;;;;;;;;;;4971538;28;20182;-82
2021/05/14 02:49:25;;;;;;;4.23;2.30;;;;;;;;;;4980289;28;20558;-82
2021/05/14 02:52:29;;;;;;;3.20;2.20;;;;;;;;;;4950584;28;20182;-82
2021/05/14 02:55:33;;;;;;;3.20;2.10;;;;;;;;;;4951890;28;20182;-82
2021/05/14 02:58:37;;;;;;;5.40;2.30;;;;;;;;;;4962996;28;20222;-82
2021/05/14 03:01:41;;;;;;;2.23;2.00;;;;;;;;;;4963872;28;21161;-82
2021/05/14 03:04:46;;;;;;;2.40;2.00;;;;;;;;;;4951982;28;20203;-82
2021/05/14 03:07:50;;;;;;;2.37;2.17;;;;;;;;;;4946964;28;20661;-82
2021/05/14 03:10:55;;;;;;;2.20;2.00;;;;;;;;;;4952729;28;20199;-82
2021/05/14 03:13:59;;;;;;;3.53;2.17;;;;;;;;;;4951804;28;20222;-82
2021/05/14 03:17:04;;;;;;;4.73;2.10;;;;;;;;;;4940636;28;20187;-82
2021/05/14 03:20:09;;;;;;;3.17;2.20;;;;;;;;;;4940539;28;20222;-82
2021/05/14 03:23:13;;;;;;;2.97;1.83;;;;;;;;;;4948930;28;20198;-82
2021/05/14 03:26:17;;;;;;;3.07;2.27;;;;;;;;;;4962930;28;20187;-82
2021/05/14 03:33:05;;;;;;;4.10;2.30;;;;;;;;;;4950154;29;20227;-74
2021/05/14 03:36:09;;;;;;;3.27;2.03;;;;;;;;;;4942982;28;20188;-74
2021/05/14 03:39:15;;;;;;;2.53;2.20;;;;;;;;;;4966173;28;20195;-74
2021/05/14 03:42:28;;;;;;;3.40;2.00;;;;;;;;;;4961581;28;20218;-74
2021/05/14 03:45:32;;;;;;;6.60;2.30;;;;;;;;;;4962335;28;20183;-74
2021/05/14 03:48:36;;;;;;;2.20;2.00;;;;;;;;;;4966532;28;20682;-74
2021/05/14 03:51:41;;;;;;;2.17;1.97;;;;;;;;;;4968946;28;20219;-74
2021/05/14 03:54:45;;;;;;;4.03;2.17;;;;;;;;;;4943012;29;20211;-74
2021/05/14 03:57:49;;;;;;;4.17;2.20;;;;;;;;;;4954681;28;20192;-75
2021/05/14 04:00:53;;;;;;;2.83;2.33;;;;;;;;;;4961432;28;20194;-74
2021/05/14 04:03:58;;;;;;;2.60;2.20;;;;;;;;;;4973434;28;20191;-74
2021/05/14 04:07:04;;;;;;;6.23;2.20;;;;;;;;;;4966163;28;20202;-74
2021/05/14 04:16:43;;;;;;;2.83;1.87;;;;;;;;;;4977200;28;20195;-75
2021/05/14 04:19:48;;;;;;;2.97;1.73;;;;;;;;;;4971880;28;20191;-74
2021/05/14 04:22:52;;;;;;;3.57;2.20;;;;;;;;;;4958049;28;20566;-75
2021/05/14 04:25:56;;;;;;;2.10;1.90;;;;;;;;;;4947298;28;20651;-74
2021/05/14 04:29:00;;;;;;;3.40;2.17;;;;;;;;;;4962766;28;20195;-74
2021/05/14 04:32:05;;;;;;;2.17;1.80;;;;;;;;;;4976077;28;20226;-74
2021/05/14 04:35:09;;;;;;;4.47;2.07;;;;;;;;;;4966559;28;20207;-74
2021/05/14 04:38:14;;;;;;;3.50;1.83;;;;;;;;;;4965375;28;20198;-74
2021/05/14 04:41:18;;;;;;;3.50;2.37;;;;;;;;;;4956614;28;20223;-74
2021/05/14 04:44:22;;;;;;;7.00;2.10;;;;;;;;;;4945704;28;20199;-74
2021/05/14 04:47:26;;;;;;;2.60;1.97;;;;;;;;;;4946715;28;20192;-76
2021/05/14 04:50:31;;;;;;;2.27;1.90;;;;;;;;;;4958713;28;20183;-76
2021/05/14 04:53:36;;;;;;;2.40;1.90;;;;;;;;;;4953771;28;20215;-75
2021/05/14 04:56:41;;;;;;;2.57;2.00;;;;;;;;;;4957549;28;20199;-75
2021/05/14 04:59:46;;;;;;;2.57;2.00;;;;;;;;;;4967700;28;20198;-75
2021/05/14 05:02:51;;;;;;;4.23;1.97;;;;;;;;;;4964269;28;20222;-75
2021/05/14 05:05:55;;;;;;;3.50;2.20;;;;;;;;;;4957126;29;20188;-75
2021/05/14 05:08:59;;;;;;;4.23;2.30;;;;;;;;;;4960482;28;20191;-75
2021/05/14 05:12:04;;;;;;;3.43;2.73;;;;;;;;;;4976438;28;20215;-75
2021/05/14 05:15:10;;;;;;;3.57;3.00;;;;;;;;;;4962090;28;20210;-76
2021/05/14 05:18:14;;;;;;;5.40;2.60;;;;;;;;;;4956716;28;20195;-76
2021/05/14 05:21:18;;;;;;;2.57;1.90;;;;;;;;;;4957171;29;20561;-75
2021/05/14 05:24:22;;;;;;;3.17;1.90;;;;;;;;;;4956758;29;20654;-75
2021/05/14 05:27:27;;;;;;;2.57;2.00;;;;;;;;;;4957853;28;20195;-75
2021/05/14 05:30:31;;;;;;;3.87;2.17;;;;;;;;;;4957830;28;20211;-76
2021/05/14 05:33:35;;;;;;;3.67;1.87;;;;;;;;;;4956639;29;20207;-76
2021/05/14 05:36:39;;;;;;;3.73;2.37;;;;;;;;;;4945116;29;20646;-75
2021/05/14 05:39:43;;;;;;;3.37;2.60;;;;;;;;;;4945451;28;20642;-76
2021/05/14 05:42:48;;;;;;;2.77;2.13;;;;;;;;;;4967830;28;20227;-75
2021/05/14 05:45:52;;;;;;;2.57;2.10;;;;;;;;;;4956988;29;20184;-73
2021/05/14 05:48:56;;;;;;;3.77;3.07;;;;;;;;;;4960679;28;20570;-76
2021/05/14 05:52:01;;;;;;;2.53;2.30;;;;;;;;;;4975814;28;20218;-75
2021/05/14 05:55:05;;;;;;;3.97;2.30;;;;;;;;;;4955618;29;20698;-75
2021/05/14 05:58:12;;;;;;;2.63;2.00;;;;;;;;;;4957704;28;20643;-76
2021/05/14 06:01:16;;;;;;;1.93;1.77;;;;;;;;;;4955345;28;20218;-76
2021/05/14 06:04:20;;;;;;;3.90;1.80;;;;;;;;;;4976266;28;20198;-75
2021/05/14 06:07:24;;;;;;;3.03;1.53;;;;;;;;;;4963722;28;20214;-76
2021/05/14 06:10:28;;;;;;;2.40;2.20;;;;;;;;;;4960726;28;20203;-75
2021/05/14 06:13:34;;;;;;;8.97;5.03;;;;;;;;;;4944443;29;20203;-76
2021/05/14 06:16:39;;;;;;;2.37;1.93;;;;;;;;;;4961031;28;20191;-76
2021/05/14 06:20:19;;;;;;;2.20;1.50;;;;;;;;;;4975754;28;20183;-76
2021/05/14 06:23:13;;;;;;;3.30;1.70;;;;;;;;;;4956899;28;20555;-77
2021/05/14 06:26:18;;;;;;;5.67;1.87;;;;;;;;;;4963817;28;20223;-76
2021/05/14 06:29:22;;;;;;;2.33;1.60;;;;;;;;;;4963112;28;20190;-77
2021/05/14 06:32:26;;;;;;;2.00;1.50;;;;;;;;;;4963138;28;20226;-76
2021/05/14 06:35:32;;;;;;;6.23;1.70;;;;;;;;;;4950240;28;20215;-76
2021/05/14 06:38:36;;;;;;;1.93;1.70;;;;;;;;;;4943895;28;20195;-75
2021/05/14 06:41:40;;;;;;;2.90;1.60;;;;;;;;;;4961839;28;20210;-76
2021/05/14 06:44:45;;;;;;;5.03;1.80;;;;;;;;;;4950410;29;20183;-75
2021/05/14 06:47:49;;;;;;;2.40;1.33;;;;;;;;;;4943892;29;20188;-75
2021/05/14 06:50:53;;;;;;;3.07;2.30;;;;;;;;;;4963224;28;20198;-75
2021/05/14 06:53:57;;;;;;;1.40;1.30;;;;;;;;;;4943713;29;20211;-75
2021/05/14 06:57:02;;;;;;;2.30;1.30;;;;;;;;;;4972875;28;20195;-75
2021/05/14 07:00:07;;;;;;;29.40;3.37;;;;;;;;;;4971503;28;20190;-75
2021/05/14 07:03:11;;;;;;;1.67;1.20;;;;;;;;;;4959632;28;20227;-75
2021/05/14 07:06:16;;;;;;;2.83;1.50;;;;;;;;;;4956428;28;20528;-75
2021/05/14 07:09:20;;;;;;;5.07;1.90;;;;;;;;;;4955317;29;20184;-75
2021/05/14 07:12:24;;;;;;;1.77;0.80;;;;;;;;;;4958420;28;20210;-76
2021/05/14 07:15:29;;;;;;;2.10;0.83;;;;;;;;;;4974494;28;20211;-76
2021/05/14 07:18:33;;;;;;;0.93;0.80;;;;;;;;;;4974920;28;20179;-75
2021/05/14 07:21:38;;;;;;;1.07;0.80;;;;;;;;;;4973745;28;20222;-75
2021/05/14 07:24:42;;;;;;;1.00;0.83;;;;;;;;;;4968257;28;20186;-75
2021/05/14 07:27:47;;;;;;;1.50;1.00;;;;;;;;;;4946327;29;20191;-75
2021/05/14 07:30:51;;;;;;;1.63;0.90;;;;;;;;;;4943058;29;20203;-76
2021/05/14 07:33:55;;;;;;;1.00;0.90;;;;;;;;;;4943347;29;20203;-75
2021/05/14 07:36:59;;;;;;;0.90;0.70;;;;;;;;;;4943910;29;20520;-76
2021/05/14 07:40:05;;;;;;;1.70;0.77;;;;;;;;;;4955375;29;20191;-76
2021/05/14 07:43:09;;;;;;;2.13;1.13;;;;;;;;;;4943056;29;20215;-75
2021/05/14 07:46:13;;;;;;;4.77;1.00;;;;;;;;;;4955292;29;20184;-75
2021/05/14 07:49:18;;;;;;;3.00;0.90;;;;;;;;;;4944883;29;20520;-76
2021/05/14 07:52:23;;;;;;;1.57;1.00;;;;;;;;;;4947181;29;20551;-76
2021/05/14 07:55:27;;;;;;;2.07;0.80;;;;;;;;;;4947667;28;20204;-75
2021/05/14 07:58:31;;;;;;;2.27;0.73;;;;;;;;;;4958811;28;20643;-75
2021/05/14 08:01:35;;;;;;;2.07;0.87;;;;;;;;;;4958033;29;20215;-75
2021/05/14 08:04:40;;;;;;;1.40;0.80;;;;;;;;;;4971448;28;20187;-75
2021/05/14 08:07:58;;;;;;;1.53;0.90;;;;;;;;;;4958405;28;20662;-75
2021/05/14 08:11:02;;;;;;;2.53;1.00;;;;;;;;;;4946720;29;20192;-75
2021/05/14 08:14:06;;;;;;;2.07;0.90;;;;;;;;;;4946320;29;20191;-75
2021/05/14 08:17:10;;;;;;;4.40;1.03;;;;;;;;;;4961715;28;20186;-75
2021/05/14 08:20:14;;;;;;;1.10;0.87;;;;;;;;;;4958823;29;20502;-76
2021/05/14 08:23:20;;;;;;;2.40;0.83;;;;;;;;;;4971149;28;20191;-75
2021/05/14 08:26:25;;;;;;;1.57;0.80;;;;;;;;;;4977343;28;20618;-75
2021/05/14 08:29:30;;;;;;;1.13;0.77;;;;;;;;;;4965820;28;20182;-76
2021/05/14 08:32:34;;;;;;;1.10;0.70;;;;;;;;;;4958174;28;20219;-75
2021/05/14 08:35:39;;;;;;;1.23;0.60;;;;;;;;;;4946743;29;20227;-75
2021/05/14 08:38:43;;;;;;;1.47;0.70;;;;;;;;;;4957376;29;20184;-74
2021/05/14 08:41:48;;;;;;;2.57;0.80;;;;;;;;;;4959004;28;20211;-74
2021/05/14 08:44:53;;;;;;;2.33;0.50;;;;;;;;;;4977514;28;20183;-74
2021/05/14 08:47:57;;;;;;;2.43;0.73;;;;;;;;;;4976770;28;20179;-74
2021/05/14 08:51:06;;;;;;;0.80;0.53;;;;;;;;;;4966503;28;20191;-74
2021/05/14 08:54:10;;;;;;;0.77;0.63;;;;;;;;;;4945716;29;20527;-75
2021/05/14 08:57:14;;;;;;;1.37;0.60;;;;;;;;;;4957947;29;20643;-75
2021/05/14 09:00:19;;;;;;;2.27;0.90;;;;;;;;;;4966125;28;20195;-74
2021/05/14 09:03:24;;;;;;;0.90;0.70;;;;;;;;;;4960114;28;20199;-73
2021/05/14 09:06:35;;;;;;;0.70;0.60;;;;;;;;;;4967177;28;20187;-74
2021/05/14 09:09:39;;;;;;;3.03;0.63;;;;;;;;;;4961730;28;20515;-74
2021/05/14 09:12:44;;;;;;;2.13;0.60;;;;;;;;;;4962777;28;20227;-74
2021/05/14 09:15:48;;;;;;;0.77;0.50;;;;;;;;;;4942161;29;20682;-74
2021/05/14 09:18:53;;;;;;;0.93;0.60;;;;;;;;;;4958853;28;20199;-74
2021/05/14 09:22:17;;;;;;;1.57;0.50;;;;;;;;;;4951185;28;20697;-74
2021/05/14 09:25:21;;;;;;;9.63;0.90;;;;;;;;;;4973173;28;20183;-75
2021/05/14 09:28:29;;;;;;;1.47;0.63;;;;;;;;;;4961399;28;20194;-74
2021/05/14 09:31:33;;;;;;;0.70;0.50;;;;;;;;;;4963249;28;20239;-74
2021/05/14 09:34:37;;;;;;;6.23;0.70;;;;;;;;;;4953927;29;20187;-74
2021/05/14 09:37:46;;;;;;;1.63;0.60;;;;;;;;;;4968134;28;20194;-74
2021/05/14 09:40:51;;;;;;;1.77;0.60;;;;;;;;;;4970160;28;20674;-75
2021/05/14 09:44:07;;;;;;;0.97;0.50;;;;;;;;;;4972182;28;20191;-75
2021/05/14 09:47:11;;;;;;;1.27;0.50;;;;;;;;;;4971610;28;20191;-74
2021/05/14 09:50:33;;;;;;;4.00;0.80;;;;;;;;;;4972178;28;20191;-74
2021/05/14 09:53:37;;;;;;;2.00;0.40;;;;;;;;;;4972431;28;20243;-74
2021/05/14 09:56:44;;;;;;;3.77;1.00;;;;;;;;;;4955712;28;20223;-74
2021/05/14 09:59:50;;;;;;;1.00;0.60;;;;;;;;;;4966011;28;20202;-74
2021/05/14 10:02:58;;;;;;;12.00;4.90;;;;;;;;;;4982042;23;20708;-72
2021/05/14 10:06:04;;;;;;;3.90;1.27;;;;;;;;;;4973959;28;20205;-72
2021/05/14 10:09:10;;;;;;;160.40;96.90;;;;;;;;;;4975340;28;20519;-73
2021/05/14 10:12:15;;;;;;;3.10;1.33;;;;;;;;;;4962672;28;20229;-73
2021/05/14 10:15:20;;;;;;;0.70;0.70;;;;;;;;;;4991477;28;20206;-72
2021/05/14 10:18:24;;;;;;;2.60;0.47;;;;;;;;;;4975382;28;20182;-72
2021/05/14 10:21:29;;;;;;;4.97;2.67;;;;;;;;;;4975071;28;20705;-73
2021/05/14 10:24:40;;;;;;;3.27;2.27;;;;;;;;;;4974585;28;20183;-73
2021/05/14 10:27:45;;;;;;;8.30;5.63;;;;;;;;;;4980916;28;20191;-72
2021/05/14 10:31:00;;;;;;;7.33;3.00;;;;;;;;;;4976616;28;20191;-72
2021/05/14 10:34:12;;;;;;;2.50;1.77;;;;;;;;;;4981626;28;20194;-72
2021/05/14 10:38:01;;;;;;;1.20;0.50;;;;;;;;;;4975900;28;20187;-72
2021/05/14 10:41:27;;;;;;;0.70;0.40;;;;;;;;;;4977201;28;20194;-72
2021/05/14 10:44:53;;;;;;;1.83;0.80;;;;;;;;;;4984605;28;20186;-73
2021/05/14 10:47:57;;;;;;;2.83;1.07;;;;;;;;;;4978825;28;20186;-72
2021/05/14 10:51:05;;;;;;;2.43;1.50;;;;;;;;;;4981342;28;20186;-72
2021/05/14 10:54:09;;;;;;;6.43;4.00;;;;;;;;;;4964922;28;20226;-73
2021/05/14 10:57:13;;;;;;;2.30;0.80;;;;;;;;;;4962498;28;20209;-72
2021/05/14 11:00:25;;;;;;;6.70;2.47;;;;;;;;;;4954221;29;20186;-73
2021/05/14 11:03:36;;;;;;;8.20;6.30;;;;;;;;;;4958518;28;20204;-73
2021/05/14 11:06:43;;;;;;;8.53;5.77;;;;;;;;;;4959012;28;20188;-72
2021/05/14 11:10:14;;;;;;;12.90;11.17;;;;;;;;;;4954871;28;20193;-72
2021/05/14 11:13:51;;;;;;;10.10;8.47;;;;;;;;;;4961590;28;20558;-74
2021/05/14 11:16:58;;;;;;;3.33;3.03;;;;;;;;;;4962378;28;20212;-72
2021/05/14 11:20:21;;;;;;;2.00;1.80;;;;;;;;;;4973475;28;20184;-74
2021/05/14 11:23:38;;;;;;;0.83;0.50;;;;;;;;;;4973815;28;20179;-74
2021/05/14 11:26:57;;;;;;;4.20;1.00;;;;;;;;;;4977370;28;20544;-72
2021/05/14 11:30:08;;;;;;;0.93;0.60;;;;;;;;;;4978769;28;20184;-73
2021/05/14 11:33:24;;;;;;;0.97;0.50;;;;;;;;;;4977803;28;20217;-74
2021/05/14 11:36:28;;;;;;;0.87;0.40;;;;;;;;;;4977303;28;20223;-73
2021/05/14 11:39:34;;;;;;;0.83;0.70;;;;;;;;;;4977260;28;20209;-73
2021/05/14 11:42:59;;;;;;;0.43;0.40;;;;;;;;;;4977381;28;20220;-73
2021/05/14 11:46:08;;;;;;;0.90;0.40;;;;;;;;;;4977140;28;20183;-73
2021/05/14 11:49:13;;;;;;;0.57;0.40;;;;;;;;;;4978143;28;20191;-73
2021/05/14 11:52:37;;;;;;;14.27;1.08;;;;;;;;;;4978046;28;20226;-73
2021/05/14 11:55:44;;;;;;;0.45;0.40;;;;;;;;;;4966103;28;20221;-73
2021/05/14 11:58:48;;;;;;;2.25;0.40;;;;;;;;;;4977797;28;20183;-73
2021/05/14 12:01:52;;;;;;;0.82;0.40;;;;;;;;;;4977479;28;20563;-74
2021/05/14 12:04:56;;;;;;;0.83;0.50;;;;;;;;;;4977685;28;20502;-73
2021/05/14 12:08:14;;;;;;;1.23;0.40;;;;;;;;;;4977277;28;20199;-73
2021/05/14 12:11:18;;;;;;;1.57;0.70;;;;;;;;;;4977206;28;20219;-74
2021/05/14 12:14:23;;;;;;;3.47;0.47;;;;;;;;;;4977719;28;20188;-73
2021/05/14 12:17:28;;;;;;;1.87;0.50;;;;;;;;;;4977459;28;20208;-73
2021/05/14 12:20:37;;;;;;;1.17;0.40;;;;;;;;;;4976558;28;20202;-74
2021/05/14 12:23:41;;;;;;;1.13;0.20;;;;;;;;;;4964022;28;20198;-74
2021/05/14 12:26:47;;;;;;;0.75;0.40;;;;;;;;;;4975181;28;20198;-73
2021/05/14 12:29:59;;;;;;;0.98;0.55;;;;;;;;;;4976022;28;20209;-74
2021/05/14 12:33:05;;;;;;;0.30;0.30;;;;;;;;;;4976853;28;20699;-73
2021/05/14 12:36:09;;;;;;;1.90;0.70;;;;;;;;;;4972269;28;20685;-73
2021/05/14 12:39:16;;;;;;;0.93;0.53;;;;;;;;;;4968362;28;20192;-74
2021/05/14 12:42:31;;;;;;;0.60;0.40;;;;;;;;;;4969412;28;20220;-74
2021/05/14 12:45:37;;;;;;;1.70;0.63;;;;;;;;;;4957270;29;20548;-74
2021/05/14 12:48:41;;;;;;;1.00;0.60;;;;;;;;;;4957835;29;20182;-74
2021/05/14 12:51:46;;;;;;;0.68;0.38;;;;;;;;;;4958384;28;20215;-73
2021/05/14 12:55:03;;;;;;;0.40;0.33;;;;;;;;;;4976925;28;20179;-74
2021/05/14 12:58:11;;;;;;;1.63;0.60;;;;;;;;;;4976177;28;20176;-74
2021/05/14 13:01:23;;;;;;;7.13;0.67;;;;;;;;;;4975646;28;20219;-74
2021/05/14 13:04:29;;;;;;;0.30;0.30;;;;;;;;;;4956506;29;20183;-73
2021/05/14 13:07:34;;;;;;;0.73;0.50;;;;;;;;;;4945087;29;20197;-73
2021/05/14 13:10:46;;;;;;;4.97;0.73;;;;;;;;;;4955992;28;20684;-73
2021/05/14 13:13:50;;;;;;;37.67;7.70;;;;;;;;;;4962259;28;20195;-73
2021/05/14 13:16:55;;;;;;;9.20;3.00;;;;;;;;;;4965296;28;20215;-73
2021/05/14 13:19:59;;;;;;;1.33;0.43;;;;;;;;;;4958137;28;20199;-74
2021/05/14 13:23:03;;;;;;;13.20;4.63;;;;;;;;;;4967251;28;20216;-74
2021/05/14 13:26:08;;;;;;;5.07;1.50;;;;;;;;;;4975602;28;20196;-73
2021/05/14 13:29:12;;;;;;;3.87;0.77;;;;;;;;;;4975053;28;20187;-73
2021/05/14 13:32:17;;;;;;;1.57;0.67;;;;;;;;;;4958909;28;20217;-74
2021/05/14 13:35:21;;;;;;;2.57;1.07;;;;;;;;;;4956704;28;20196;-74
2021/05/14 13:38:25;;;;;;;0.80;0.50;;;;;;;;;;4956812;29;20184;-73
2021/05/14 13:41:30;;;;;;;2.03;0.60;;;;;;;;;;4956620;28;20215;-74
2021/05/14 13:44:34;;;;;;;1.13;0.43;;;;;;;;;;4956692;28;20656;-73
2021/05/14 13:47:38;;;;;;;1.30;0.50;;;;;;;;;;4956791;28;20202;-73
2021/05/14 13:50:42;;;;;;;1.92;0.40;;;;;;;;;;4962414;28;20206;-73
2021/05/14 13:53:47;;;;;;;2.17;0.60;;;;;;;;;;4975758;28;20198;-74
2021/05/14 13:56:51;;;;;;;1.03;0.40;;;;;;;;;;4976341;28;20215;-73
2021/05/14 13:59:56;;;;;;;1.40;0.60;;;;;;;;;;4972108;28;20668;-73
2021/05/14 14:03:01;;;;;;;1.97;0.40;;;;;;;;;;4971432;28;20229;-74
2021/05/14 14:06:05;;;;;;;2.15;0.40;;;;;;;;;;4966835;28;20204;-74
2021/05/14 14:09:09;;;;;;;0.30;0.30;;;;;;;;;;4966385;28;20642;-74
2021/05/14 14:12:14;;;;;;;1.48;0.50;;;;;;;;;;4963233;28;20223;-73
2021/05/14 14:15:19;;;;;;;1.17;0.40;;;;;;;;;;4974520;28;20195;-73
2021/05/14 14:18:23;;;;;;;2.73;0.43;;;;;;;;;;4974788;28;20218;-73
2021/05/14 14:21:31;;;;;;;2.40;0.50;;;;;;;;;;4975454;28;20216;-73
2021/05/14 14:24:35;;;;;;;0.40;0.30;;;;;;;;;;4975265;28;20183;-73
2021/05/14 14:27:41;;;;;;;0.87;0.40;;;;;;;;;;4974896;28;20200;-74
2021/05/14 14:30:45;;;;;;;0.60;0.40;;;;;;;;;;4974801;28;20199;-74
2021/05/14 14:33:49;;;;;;;1.27;0.40;;;;;;;;;;4975402;28;20182;-73
2021/05/14 14:36:54;;;;;;;0.70;0.40;;;;;;;;;;4962924;28;20211;-74
2021/05/14 14:39:58;;;;;;;1.43;0.60;;;;;;;;;;4965819;28;20190;-74
2021/05/14 14:43:02;;;;;;;1.27;0.40;;;;;;;;;;4955325;28;20222;-73
2021/05/14 14:46:06;;;;;;;2.40;0.70;;;;;;;;;;4962662;28;20196;-74
2021/05/14 14:49:11;;;;;;;2.40;0.50;;;;;;;;;;4963144;28;20660;-73
2021/05/14 14:52:15;;;;;;;0.40;0.40;;;;;;;;;;4974621;28;20215;-73
2021/05/14 14:55:20;;;;;;;0.70;0.40;;;;;;;;;;4974192;28;20183;-74
2021/05/14 14:58:25;;;;;;;0.43;0.33;;;;;;;;;;4955392;28;20210;-74
2021/05/14 15:01:29;;;;;;;0.47;0.47;;;;;;;;;;4955352;28;20221;-73
2021/05/14 15:04:33;;;;;;;0.93;0.50;;;;;;;;;;4955423;29;20176;-73
2021/05/14 15:07:38;;;;;;;0.40;0.33;;;;;;;;;;4970080;28;20182;-73
2021/05/14 15:10:43;;;;;;;1.10;0.70;;;;;;;;;;4956024;28;20540;-73
2021/05/14 15:13:47;;;;;;;0.57;0.30;;;;;;;;;;4961065;28;20677;-73
2021/05/14 15:16:51;;;;;;;1.93;0.40;;;;;;;;;;4974611;28;20678;-73
2021/05/14 15:19:55;;;;;;;2.13;0.77;;;;;;;;;;4973442;28;20203;-73
2021/05/14 15:22:59;;;;;;;2.00;0.50;;;;;;;;;;4962748;28;20222;-73
2021/05/14 15:26:04;;;;;;;3.20;0.50;;;;;;;;;;4973678;28;20183;-73
2021/05/14 15:29:10;;;;;;;1.23;0.47;;;;;;;;;;4955433;29;20195;-73
2021/05/14 15:32:14;;;;;;;1.27;0.40;;;;;;;;;;4939134;29;20215;-73
2021/05/14 15:35:19;;;;;;;1.57;0.67;;;;;;;;;;4950445;29;20184;-73
2021/05/14 15:38:23;;;;;;;2.53;0.60;;;;;;;;;;4968296;28;20214;-73
2021/05/14 15:41:28;;;;;;;2.03;0.60;;;;;;;;;;4970598;28;20713;-73
2021/05/14 15:44:32;;;;;;;3.27;0.50;;;;;;;;;;4956853;28;20179;-73
2021/05/14 15:47:36;;;;;;;1.67;0.50;;;;;;;;;;4968430;28;20588;-72
2021/05/14 15:50:41;;;;;;;2.13;1.93;;;;;;;;;;4959399;28;20667;-73
2021/05/14 15:53:46;;;;;;;0.50;0.50;;;;;;;;;;4951127;29;20222;-73
2021/05/14 15:56:50;;;;;;;0.40;0.40;;;;;;;;;;4954654;28;20198;-72
2021/05/14 15:59:54;;;;;;;0.70;0.60;;;;;;;;;;4969902;28;20183;-73
2021/05/14 16:02:59;;;;;;;2.60;1.10;;;;;;;;;;4946428;28;20239;-72
2021/05/14 16:06:03;;;;;;;5.33;0.70;;;;;;;;;;4958472;28;20183;-72
2021/05/14 16:09:08;;;;;;;2.47;1.27;;;;;;;;;;4968651;28;20539;-72
2021/05/14 16:12:12;;;;;;;3.90;2.83;;;;;;;;;;4972645;28;20222;-72
2021/05/14 16:15:17;;;;;;;3.73;1.70;;;;;;;;;;4962092;28;20178;-72
2021/05/14 16:18:23;;;;;;;0.93;0.80;;;;;;;;;;4972948;28;20539;-72
2021/05/14 16:21:28;;;;;;;1.43;1.07;;;;;;;;;;4973293;28;20214;-72
2021/05/14 16:24:34;;;;;;;1.40;1.30;;;;;;;;;;4945109;29;20222;-71
2021/05/14 16:27:38;;;;;;;1.23;0.97;;;;;;;;;;4964447;28;20665;-71
2021/05/14 16:30:43;;;;;;;1.93;1.00;;;;;;;;;;4977057;28;20206;-72
2021/05/14 16:33:47;;;;;;;0.93;0.80;;;;;;;;;;4977348;28;20179;-71
2021/05/14 16:36:51;;;;;;;1.33;0.47;;;;;;;;;;4965588;28;20183;-71
2021/05/14 16:39:55;;;;;;;0.60;0.30;;;;;;;;;;4977137;28;20194;-72
2021/05/14 16:42:59;;;;;;;1.13;0.30;;;;;;;;;;4964799;28;20223;-72
2021/05/14 16:46:03;;;;;;;4.27;0.40;;;;;;;;;;4957527;29;20180;-72
2021/05/14 16:49:07;;;;;;;0.60;0.40;;;;;;;;;;4983936;23;20569;-75
2021/05/14 16:52:11;;;;;;;0.57;0.27;;;;;;;;;;4978798;28;20222;-75
2021/05/14 16:55:16;;;;;;;0.50;0.37;;;;;;;;;;4965084;28;20175;-75
2021/05/14 16:58:20;;;;;;;1.13;0.50;;;;;;;;;;4978310;28;20230;-75
2021/05/14 17:01:25;;;;;;;1.57;0.60;;;;;;;;;;4992795;28;20217;-75
2021/05/14 17:04:30;;;;;;;0.60;0.30;;;;;;;;;;4980522;28;20190;-75
2021/05/14 17:07:37;;;;;;;1.17;0.70;;;;;;;;;;4992104;28;20186;-75
2021/05/14 17:10:41;;;;;;;0.50;0.50;;;;;;;;;;4980633;28;20198;-75
2021/05/14 17:13:46;;;;;;;2.20;1.10;;;;;;;;;;4980416;28;20190;-74
2021/05/14 17:16:51;;;;;;;1.23;0.40;;;;;;;;;;4961217;28;20206;-75
2021/05/14 17:19:55;;;;;;;1.33;0.40;;;;;;;;;;4973858;28;20630;-75
2021/05/14 17:23:00;;;;;;;0.93;0.50;;;;;;;;;;4982526;28;20221;-75
2021/05/14 17:26:04;;;;;;;3.90;0.50;;;;;;;;;;4961765;28;20550;-75
2021/05/14 17:29:08;;;;;;;0.90;0.40;;;;;;;;;;4964180;28;20194;-75
2021/05/14 17:32:14;;;;;;;0.73;0.43;;;;;;;;;;4973768;28;20713;-75
2021/05/14 17:35:18;;;;;;;1.30;0.30;;;;;;;;;;4966577;28;20194;-75
2021/05/14 17:38:23;;;;;;;1.83;0.50;;;;;;;;;;4973181;28;20211;-75
2021/05/14 17:41:27;;;;;;;2.10;0.60;;;;;;;;;;4959539;28;20217;-76
2021/05/14 17:44:33;;;;;;;1.43;0.50;;;;;;;;;;4975882;28;20198;-75
2021/05/14 17:47:37;;;;;;;1.60;0.40;;;;;;;;;;4987583;28;20542;-76
2021/05/14 17:50:41;;;;;;;4.37;0.50;;;;;;;;;;4980766;28;20202;-75
2021/05/14 17:53:46;;;;;;;2.30;0.47;;;;;;;;;;4993755;28;20178;-77
2021/05/14 17:56:50;;;;;;;1.57;0.80;;;;;;;;;;4974300;28;20182;-75
2021/05/14 17:59:55;;;;;;;0.50;0.50;;;;;;;;;;4973398;28;20175;-75
2021/05/14 18:02:59;;;;;;;3.30;0.60;;;;;;;;;;4979928;28;20226;-75
2021/05/14 18:06:04;;;;;;;2.60;0.60;;;;;;;;;;4961871;28;20194;-73
2021/05/14 18:09:08;;;;;;;5.97;0.50;;;;;;;;;;4975323;28;20187;-74
2021/05/14 18:12:13;;;;;;;1.53;0.40;;;;;;;;;;4989058;28;20234;-75
2021/05/14 18:15:19;;;;;;;1.17;0.47;;;;;;;;;;4967761;28;20190;-74
2021/05/14 18:18:40;;;;;;;1.03;0.40;;;;;;;;;;4975728;28;20211;-74
2021/05/14 18:21:44;;;;;;;3.90;0.57;;;;;;;;;;4966892;28;20222;-74
2021/05/14 18:24:49;;;;;;;1.70;0.30;;;;;;;;;;4977602;28;20562;-74
2021/05/14 18:27:53;;;;;;;0.73;0.50;;;;;;;;;;4968323;28;20190;-74
2021/05/14 18:30:58;;;;;;;0.93;0.47;;;;;;;;;;4980207;28;20186;-74
2021/05/14 18:34:08;;;;;;;0.53;0.50;;;;;;;;;;4990252;28;20182;-74
2021/05/14 18:37:12;;;;;;;1.80;0.50;;;;;;;;;;4951942;28;20662;-73
2021/05/14 18:40:18;;;;;;;2.27;0.57;;;;;;;;;;4972831;28;20199;-73
2021/05/14 18:43:23;;;;;;;1.40;0.60;;;;;;;;;;4949880;28;20657;-73